sensor_id;sensor_type;location;lat;lon;timestamp;P1;durP1;ratioP1;P2;durP2;ratioP2
54408;SDS011;40315;48.620;9.828;2023-05-07T00:01:42;3.42;;;2.80;;
54408;SDS011;40315;48.620;9.828;2023-05-07T00:04:09;5.70;;;3.03;;
54408;SDS011;40315;48.620;9.828;2023-05-07T00:06:36;3.80;;;2.90;;
54408;SDS011;40315;48.620;9.828;2023-05-07T00:09:04;5.32;;;2.80;;
54408;SDS011;40315;48.620;9.828;2023-05-07T00:11:34;3.40;;;2.65;;
54408;SDS011;40315;48.620;9.828;2023-05-07T00:14:03;3.28;;;2.50;;
54408;SDS011;40315;48.620;9.828;2023-05-07T00:16:30;5.30;;;2.53;;
54408;SDS011;40315;48.620;9.828;2023-05-07T00:19:00;4.63;;;3.00;;
54408;SDS011;40315;48.620;9.828;2023-05-07T00:21:27;5.50;;;2.78;;
54408;SDS011;40315;48.620;9.828;2023-05-07T00:23:54;3.25;;;2.42;;
54408;SDS011;40315;48.620;9.828;2023-05-07T00:26:22;4.63;;;2.53;;
54408;SDS011;40315;48.620;9.828;2023-05-07T00:28:50;3.38;;;2.63;;
54408;SDS011;40315;48.620;9.828;2023-05-07T00:31:17;3.38;;;2.70;;
54408;SDS011;40315;48.620;9.828;2023-05-07T00:33:47;4.38;;;2.47;;
54408;SDS011;40315;48.620;9.828;2023-05-07T00:36:14;4.88;;;2.60;;
54408;SDS011;40315;48.620;9.828;2023-05-07T00:38:41;5.03;;;2.67;;
54408;SDS011;40315;48.620;9.828;2023-05-07T00:41:08;6.15;;;3.40;;
54408;SDS011;40315;48.620;9.828;2023-05-07T00:43:36;3.58;;;2.72;;
54408;SDS011;40315;48.620;9.828;2023-05-07T00:46:03;3.15;;;2.70;;
54408;SDS011;40315;48.620;9.828;2023-05-07T00:48:31;4.03;;;2.58;;
54408;SDS011;40315;48.620;9.828;2023-05-07T00:50:58;4.15;;;3.25;;
54408;SDS011;40315;48.620;9.828;2023-05-07T00:53:28;3.60;;;2.67;;
54408;SDS011;40315;48.620;9.828;2023-05-07T00:55:55;4.80;;;2.65;;
54408;SDS011;40315;48.620;9.828;2023-05-07T00:58:23;3.03;;;2.60;;
54408;SDS011;40315;48.620;9.828;2023-05-07T01:03:34;4.63;;;2.55;;
54408;SDS011;40315;48.620;9.828;2023-05-07T01:06:01;4.30;;;2.83;;
54408;SDS011;40315;48.620;9.828;2023-05-07T01:08:31;4.30;;;2.53;;
54408;SDS011;40315;48.620;9.828;2023-05-07T01:11:00;3.35;;;2.65;;
54408;SDS011;40315;48.620;9.828;2023-05-07T01:13:28;3.95;;;2.95;;
54408;SDS011;40315;48.620;9.828;2023-05-07T01:15:55;3.78;;;2.85;;
54408;SDS011;40315;48.620;9.828;2023-05-07T01:18:22;3.45;;;2.60;;
54408;SDS011;40315;48.620;9.828;2023-05-07T01:20:52;3.17;;;2.60;;
54408;SDS011;40315;48.620;9.828;2023-05-07T01:23:22;3.80;;;3.10;;
54408;SDS011;40315;48.620;9.828;2023-05-07T01:25:52;4.38;;;2.90;;
54408;SDS011;40315;48.620;9.828;2023-05-07T01:28:22;3.70;;;2.60;;
54408;SDS011;40315;48.620;9.828;2023-05-07T01:30:50;3.85;;;3.08;;
54408;SDS011;40315;48.620;9.828;2023-05-07T01:33:23;3.58;;;2.60;;
54408;SDS011;40315;48.620;9.828;2023-05-07T01:35:52;3.13;;;2.72;;
54408;SDS011;40315;48.620;9.828;2023-05-07T01:38:23;3.13;;;2.60;;
54408;SDS011;40315;48.620;9.828;2023-05-07T01:40:51;2.95;;;2.50;;
54408;SDS011;40315;48.620;9.828;2023-05-07T01:43:19;3.45;;;2.80;;
54408;SDS011;40315;48.620;9.828;2023-05-07T01:45:48;5.10;;;2.60;;
54408;SDS011;40315;48.620;9.828;2023-05-07T01:51:58;3.05;;;2.75;;
54408;SDS011;40315;48.620;9.828;2023-05-07T01:54:27;3.33;;;2.65;;
54408;SDS011;40315;48.620;9.828;2023-05-07T01:56:56;5.00;;;2.72;;
54408;SDS011;40315;48.620;9.828;2023-05-07T01:59:23;3.80;;;2.80;;
54408;SDS011;40315;48.620;9.828;2023-05-07T02:01:50;4.75;;;3.30;;
54408;SDS011;40315;48.620;9.828;2023-05-07T02:04:18;4.40;;;3.17;;
54408;SDS011;40315;48.620;9.828;2023-05-07T02:06:47;3.55;;;2.97;;
54408;SDS011;40315;48.620;9.828;2023-05-07T02:09:15;5.63;;;3.22;;
54408;SDS011;40315;48.620;9.828;2023-05-07T02:11:45;4.85;;;3.03;;
54408;SDS011;40315;48.620;9.828;2023-05-07T02:14:15;3.35;;;2.75;;
54408;SDS011;40315;48.620;9.828;2023-05-07T02:16:43;7.47;;;3.65;;
54408;SDS011;40315;48.620;9.828;2023-05-07T02:19:14;6.13;;;3.60;;
54408;SDS011;40315;48.620;9.828;2023-05-07T02:21:44;5.03;;;3.40;;
54408;SDS011;40315;48.620;9.828;2023-05-07T02:24:13;4.93;;;3.25;;
54408;SDS011;40315;48.620;9.828;2023-05-07T02:26:42;4.32;;;3.35;;
54408;SDS011;40315;48.620;9.828;2023-05-07T02:29:11;5.22;;;3.13;;
54408;SDS011;40315;48.620;9.828;2023-05-07T02:31:40;3.97;;;3.30;;
54408;SDS011;40315;48.620;9.828;2023-05-07T02:34:07;5.43;;;3.30;;
54408;SDS011;40315;48.620;9.828;2023-05-07T02:36:34;3.28;;;2.95;;
54408;SDS011;40315;48.620;9.828;2023-05-07T02:39:08;5.63;;;3.65;;
54408;SDS011;40315;48.620;9.828;2023-05-07T02:41:35;4.00;;;3.13;;
54408;SDS011;40315;48.620;9.828;2023-05-07T02:44:02;4.03;;;3.53;;
54408;SDS011;40315;48.620;9.828;2023-05-07T02:46:33;6.13;;;3.67;;
54408;SDS011;40315;48.620;9.828;2023-05-07T02:49:06;4.57;;;3.20;;
54408;SDS011;40315;48.620;9.828;2023-05-07T02:51:32;6.10;;;2.95;;
54408;SDS011;40315;48.620;9.828;2023-05-07T02:54:02;4.15;;;3.15;;
54408;SDS011;40315;48.620;9.828;2023-05-07T02:56:31;4.95;;;3.03;;
54408;SDS011;40315;48.620;9.828;2023-05-07T02:58:58;4.50;;;2.80;;
54408;SDS011;40315;48.620;9.828;2023-05-07T03:01:30;4.22;;;3.08;;
54408;SDS011;40315;48.620;9.828;2023-05-07T03:04:03;4.75;;;3.10;;
54408;SDS011;40315;48.620;9.828;2023-05-07T03:06:30;4.05;;;3.00;;
54408;SDS011;40315;48.620;9.828;2023-05-07T03:08:57;3.30;;;3.00;;
54408;SDS011;40315;48.620;9.828;2023-05-07T03:11:24;4.50;;;2.30;;
54408;SDS011;40315;48.620;9.828;2023-05-07T03:13:52;3.83;;;3.42;;
54408;SDS011;40315;48.620;9.828;2023-05-07T03:16:20;3.78;;;2.50;;
54408;SDS011;40315;48.620;9.828;2023-05-07T03:18:47;4.78;;;2.50;;
54408;SDS011;40315;48.620;9.828;2023-05-07T03:21:15;2.63;;;2.42;;
54408;SDS011;40315;48.620;9.828;2023-05-07T03:23:45;3.03;;;2.72;;
54408;SDS011;40315;48.620;9.828;2023-05-07T03:26:12;4.32;;;2.60;;
54408;SDS011;40315;48.620;9.828;2023-05-07T03:28:40;3.33;;;2.63;;
54408;SDS011;40315;48.620;9.828;2023-05-07T03:31:11;3.30;;;2.92;;
54408;SDS011;40315;48.620;9.828;2023-05-07T03:33:42;4.85;;;2.90;;
54408;SDS011;40315;48.620;9.828;2023-05-07T03:36:18;3.75;;;3.03;;
54408;SDS011;40315;48.620;9.828;2023-05-07T03:38:45;3.85;;;2.78;;
54408;SDS011;40315;48.620;9.828;2023-05-07T03:41:16;3.80;;;3.40;;
54408;SDS011;40315;48.620;9.828;2023-05-07T03:43:44;3.38;;;2.50;;
54408;SDS011;40315;48.620;9.828;2023-05-07T03:46:12;3.65;;;2.90;;
54408;SDS011;40315;48.620;9.828;2023-05-07T03:48:40;4.38;;;3.15;;
54408;SDS011;40315;48.620;9.828;2023-05-07T03:51:07;3.70;;;2.90;;
54408;SDS011;40315;48.620;9.828;2023-05-07T03:53:36;6.68;;;3.10;;
54408;SDS011;40315;48.620;9.828;2023-05-07T03:56:03;4.65;;;3.08;;
54408;SDS011;40315;48.620;9.828;2023-05-07T03:58:34;4.35;;;2.92;;
54408;SDS011;40315;48.620;9.828;2023-05-07T04:01:06;5.93;;;3.00;;
54408;SDS011;40315;48.620;9.828;2023-05-07T04:03:34;4.07;;;3.55;;
54408;SDS011;40315;48.620;9.828;2023-05-07T04:06:01;5.22;;;3.00;;
54408;SDS011;40315;48.620;9.828;2023-05-07T04:08:30;5.20;;;3.30;;
54408;SDS011;40315;48.620;9.828;2023-05-07T04:10:58;3.22;;;2.83;;
54408;SDS011;40315;48.620;9.828;2023-05-07T04:13:29;4.43;;;3.00;;
54408;SDS011;40315;48.620;9.828;2023-05-07T04:16:00;3.38;;;2.80;;
54408;SDS011;40315;48.620;9.828;2023-05-07T04:18:28;4.35;;;2.85;;
54408;SDS011;40315;48.620;9.828;2023-05-07T04:20:55;5.82;;;3.65;;
54408;SDS011;40315;48.620;9.828;2023-05-07T04:23:23;4.50;;;3.58;;
54408;SDS011;40315;48.620;9.828;2023-05-07T04:25:50;4.18;;;3.53;;
54408;SDS011;40315;48.620;9.828;2023-05-07T04:28:39;4.22;;;3.30;;
54408;SDS011;40315;48.620;9.828;2023-05-07T04:31:06;6.45;;;3.60;;
54408;SDS011;40315;48.620;9.828;2023-05-07T04:33:36;3.17;;;2.88;;
54408;SDS011;40315;48.620;9.828;2023-05-07T04:36:07;3.80;;;3.50;;
54408;SDS011;40315;48.620;9.828;2023-05-07T04:38:41;3.92;;;3.40;;
54408;SDS011;40315;48.620;9.828;2023-05-07T04:41:08;4.25;;;3.20;;
54408;SDS011;40315;48.620;9.828;2023-05-07T04:43:40;6.63;;;3.15;;
54408;SDS011;40315;48.620;9.828;2023-05-07T04:46:09;5.93;;;3.10;;
54408;SDS011;40315;48.620;9.828;2023-05-07T04:48:36;3.25;;;2.95;;
54408;SDS011;40315;48.620;9.828;2023-05-07T04:51:05;6.68;;;3.40;;
54408;SDS011;40315;48.620;9.828;2023-05-07T04:53:34;3.88;;;2.90;;
54408;SDS011;40315;48.620;9.828;2023-05-07T04:56:01;3.78;;;3.08;;
54408;SDS011;40315;48.620;9.828;2023-05-07T04:58:35;4.95;;;2.72;;
54408;SDS011;40315;48.620;9.828;2023-05-07T05:01:05;4.30;;;2.80;;
54408;SDS011;40315;48.620;9.828;2023-05-07T05:03:32;5.75;;;3.28;;
54408;SDS011;40315;48.620;9.828;2023-05-07T05:06:01;4.32;;;2.90;;
54408;SDS011;40315;48.620;9.828;2023-05-07T05:08:31;4.15;;;3.10;;
54408;SDS011;40315;48.620;9.828;2023-05-07T05:11:00;4.63;;;2.92;;
54408;SDS011;40315;48.620;9.828;2023-05-07T05:13:28;3.00;;;2.70;;
54408;SDS011;40315;48.620;9.828;2023-05-07T05:15:55;3.22;;;2.75;;
54408;SDS011;40315;48.620;9.828;2023-05-07T05:18:26;4.13;;;2.72;;
54408;SDS011;40315;48.620;9.828;2023-05-07T05:20:55;3.00;;;2.58;;
54408;SDS011;40315;48.620;9.828;2023-05-07T05:23:22;3.20;;;2.00;;
54408;SDS011;40315;48.620;9.828;2023-05-07T05:25:55;4.40;;;2.50;;
54408;SDS011;40315;48.620;9.828;2023-05-07T05:28:25;3.63;;;2.65;;
54408;SDS011;40315;48.620;9.828;2023-05-07T05:30:53;3.08;;;2.53;;
54408;SDS011;40315;48.620;9.828;2023-05-07T05:33:21;2.40;;;2.20;;
54408;SDS011;40315;48.620;9.828;2023-05-07T05:35:50;3.20;;;2.25;;
54408;SDS011;40315;48.620;9.828;2023-05-07T05:38:17;2.83;;;2.50;;
54408;SDS011;40315;48.620;9.828;2023-05-07T05:40:46;3.75;;;2.33;;
54408;SDS011;40315;48.620;9.828;2023-05-07T05:43:14;3.47;;;2.28;;
54408;SDS011;40315;48.620;9.828;2023-05-07T05:45:43;3.47;;;2.40;;
54408;SDS011;40315;48.620;9.828;2023-05-07T05:48:11;2.42;;;2.22;;
54408;SDS011;40315;48.620;9.828;2023-05-07T05:50:38;2.63;;;2.42;;
54408;SDS011;40315;48.620;9.828;2023-05-07T05:53:08;2.83;;;2.38;;
54408;SDS011;40315;48.620;9.828;2023-05-07T05:55:35;2.72;;;2.53;;
54408;SDS011;40315;48.620;9.828;2023-05-07T05:58:03;2.83;;;2.53;;
54408;SDS011;40315;48.620;9.828;2023-05-07T06:00:34;2.80;;;2.28;;
54408;SDS011;40315;48.620;9.828;2023-05-07T06:03:05;2.40;;;2.20;;
54408;SDS011;40315;48.620;9.828;2023-05-07T06:05:34;2.58;;;2.30;;
54408;SDS011;40315;48.620;9.828;2023-05-07T06:08:04;2.50;;;2.30;;
54408;SDS011;40315;48.620;9.828;2023-05-07T06:10:35;4.80;;;2.30;;
54408;SDS011;40315;48.620;9.828;2023-05-07T06:13:03;2.50;;;2.20;;
54408;SDS011;40315;48.620;9.828;2023-05-07T06:15:35;2.63;;;2.30;;
54408;SDS011;40315;48.620;9.828;2023-05-07T06:18:07;2.35;;;2.15;;
54408;SDS011;40315;48.620;9.828;2023-05-07T06:20:34;2.83;;;2.15;;
54408;SDS011;40315;48.620;9.828;2023-05-07T06:23:04;3.72;;;2.20;;
54408;SDS011;40315;48.620;9.828;2023-05-07T06:25:33;2.25;;;2.05;;
54408;SDS011;40315;48.620;9.828;2023-05-07T06:28:01;3.20;;;2.30;;
54408;SDS011;40315;48.620;9.828;2023-05-07T06:30:29;3.28;;;2.22;;
54408;SDS011;40315;48.620;9.828;2023-05-07T06:32:56;3.25;;;2.30;;
54408;SDS011;40315;48.620;9.828;2023-05-07T06:35:25;2.63;;;2.20;;
54408;SDS011;40315;48.620;9.828;2023-05-07T06:37:53;2.72;;;2.05;;
54408;SDS011;40315;48.620;9.828;2023-05-07T06:40:23;2.83;;;2.55;;
54408;SDS011;40315;48.620;9.828;2023-05-07T06:42:52;2.63;;;2.05;;
54408;SDS011;40315;48.620;9.828;2023-05-07T06:45:32;2.58;;;2.38;;
54408;SDS011;40315;48.620;9.828;2023-05-07T06:47:59;3.03;;;2.40;;
54408;SDS011;40315;48.620;9.828;2023-05-07T06:50:29;2.88;;;2.15;;
54408;SDS011;40315;48.620;9.828;2023-05-07T06:52:57;2.40;;;2.00;;
54408;SDS011;40315;48.620;9.828;2023-05-07T06:55:25;2.58;;;2.15;;
54408;SDS011;40315;48.620;9.828;2023-05-07T06:57:54;3.25;;;2.30;;
54408;SDS011;40315;48.620;9.828;2023-05-07T07:00:24;2.90;;;2.70;;
54408;SDS011;40315;48.620;9.828;2023-05-07T07:02:54;2.40;;;2.20;;
54408;SDS011;40315;48.620;9.828;2023-05-07T07:05:24;2.83;;;2.53;;
54408;SDS011;40315;48.620;9.828;2023-05-07T07:07:51;2.78;;;2.40;;
54408;SDS011;40315;48.620;9.828;2023-05-07T07:10:19;3.00;;;2.70;;
54408;SDS011;40315;48.620;9.828;2023-05-07T07:12:49;3.80;;;3.50;;
54408;SDS011;40315;48.620;9.828;2023-05-07T07:15:19;3.78;;;3.38;;
54408;SDS011;40315;48.620;9.828;2023-05-07T07:17:48;3.47;;;2.90;;
54408;SDS011;40315;48.620;9.828;2023-05-07T07:20:15;5.00;;;3.42;;
54408;SDS011;40315;48.620;9.828;2023-05-07T07:22:46;4.20;;;3.80;;
54408;SDS011;40315;48.620;9.828;2023-05-07T07:25:15;4.95;;;3.00;;
54408;SDS011;40315;48.620;9.828;2023-05-07T07:27:42;3.65;;;2.90;;
54408;SDS011;40315;48.620;9.828;2023-05-07T07:30:11;4.75;;;3.40;;
54408;SDS011;40315;48.620;9.828;2023-05-07T07:32:41;3.58;;;3.05;;
54408;SDS011;40315;48.620;9.828;2023-05-07T07:35:08;4.55;;;3.08;;
54408;SDS011;40315;48.620;9.828;2023-05-07T07:37:38;3.50;;;3.20;;
54408;SDS011;40315;48.620;9.828;2023-05-07T07:40:06;3.70;;;2.83;;
54408;SDS011;40315;48.620;9.828;2023-05-07T07:45:08;3.38;;;2.75;;
54408;SDS011;40315;48.620;9.828;2023-05-07T07:47:39;3.67;;;2.90;;
54408;SDS011;40315;48.620;9.828;2023-05-07T07:50:08;4.25;;;2.92;;
54408;SDS011;40315;48.620;9.828;2023-05-07T07:52:36;4.75;;;2.60;;
54408;SDS011;40315;48.620;9.828;2023-05-07T07:55:04;3.80;;;2.85;;
54408;SDS011;40315;48.620;9.828;2023-05-07T07:57:34;3.17;;;2.88;;
54408;SDS011;40315;48.620;9.828;2023-05-07T08:00:02;3.35;;;2.22;;
54408;SDS011;40315;48.620;9.828;2023-05-07T08:02:42;3.60;;;2.42;;
54408;SDS011;40315;48.620;9.828;2023-05-07T08:05:14;3.92;;;2.60;;
54408;SDS011;40315;48.620;9.828;2023-05-07T08:07:44;3.92;;;2.50;;
54408;SDS011;40315;48.620;9.828;2023-05-07T08:10:18;3.20;;;2.45;;
54408;SDS011;40315;48.620;9.828;2023-05-07T08:12:48;4.38;;;2.13;;
54408;SDS011;40315;48.620;9.828;2023-05-07T08:15:18;3.15;;;2.47;;
54408;SDS011;40315;48.620;9.828;2023-05-07T08:17:47;1.98;;;1.83;;
54408;SDS011;40315;48.620;9.828;2023-05-07T08:20:16;3.65;;;1.95;;
54408;SDS011;40315;48.620;9.828;2023-05-07T08:22:43;3.08;;;2.05;;
54408;SDS011;40315;48.620;9.828;2023-05-07T08:25:11;3.75;;;2.20;;
54408;SDS011;40315;48.620;9.828;2023-05-07T08:27:40;2.83;;;2.28;;
54408;SDS011;40315;48.620;9.828;2023-05-07T08:30:12;3.42;;;2.20;;
54408;SDS011;40315;48.620;9.828;2023-05-07T08:32:40;3.50;;;2.80;;
54408;SDS011;40315;48.620;9.828;2023-05-07T08:35:07;4.57;;;2.60;;
54408;SDS011;40315;48.620;9.828;2023-05-07T08:37:39;3.33;;;2.45;;
54408;SDS011;40315;48.620;9.828;2023-05-07T08:40:07;3.90;;;2.22;;
54408;SDS011;40315;48.620;9.828;2023-05-07T08:42:37;2.35;;;2.15;;
54408;SDS011;40315;48.620;9.828;2023-05-07T08:45:08;3.42;;;2.13;;
54408;SDS011;40315;48.620;9.828;2023-05-07T08:47:41;2.10;;;1.98;;
54408;SDS011;40315;48.620;9.828;2023-05-07T08:50:11;4.10;;;2.30;;
54408;SDS011;40315;48.620;9.828;2023-05-07T08:52:41;2.40;;;2.05;;
54408;SDS011;40315;48.620;9.828;2023-05-07T08:55:09;3.25;;;2.42;;
54408;SDS011;40315;48.620;9.828;2023-05-07T08:57:37;4.15;;;2.20;;
54408;SDS011;40315;48.620;9.828;2023-05-07T09:00:04;2.55;;;1.92;;
54408;SDS011;40315;48.620;9.828;2023-05-07T09:02:35;2.50;;;2.25;;
54408;SDS011;40315;48.620;9.828;2023-05-07T09:05:07;3.15;;;1.85;;
54408;SDS011;40315;48.620;9.828;2023-05-07T09:07:35;2.47;;;2.22;;
54408;SDS011;40315;48.620;9.828;2023-05-07T09:10:09;3.10;;;1.90;;
54408;SDS011;40315;48.620;9.828;2023-05-07T09:12:39;2.38;;;2.17;;
54408;SDS011;40315;48.620;9.828;2023-05-07T09:15:08;2.38;;;1.80;;
54408;SDS011;40315;48.620;9.828;2023-05-07T09:17:38;3.95;;;1.98;;
54408;SDS011;40315;48.620;9.828;2023-05-07T09:20:08;4.55;;;1.90;;
54408;SDS011;40315;48.620;9.828;2023-05-07T09:22:37;2.30;;;2.00;;
54408;SDS011;40315;48.620;9.828;2023-05-07T09:25:10;2.55;;;1.85;;
54408;SDS011;40315;48.620;9.828;2023-05-07T09:27:38;2.20;;;1.80;;
54408;SDS011;40315;48.620;9.828;2023-05-07T09:30:06;1.95;;;1.60;;
54408;SDS011;40315;48.620;9.828;2023-05-07T09:32:35;2.42;;;1.90;;
54408;SDS011;40315;48.620;9.828;2023-05-07T09:35:05;3.30;;;1.50;;
54408;SDS011;40315;48.620;9.828;2023-05-07T09:37:41;2.22;;;1.70;;
54408;SDS011;40315;48.620;9.828;2023-05-07T09:40:21;2.35;;;1.88;;
54408;SDS011;40315;48.620;9.828;2023-05-07T09:42:49;2.35;;;1.90;;
54408;SDS011;40315;48.620;9.828;2023-05-07T09:45:21;3.08;;;1.90;;
54408;SDS011;40315;48.620;9.828;2023-05-07T09:47:49;2.38;;;2.10;;
54408;SDS011;40315;48.620;9.828;2023-05-07T09:50:22;2.25;;;1.90;;
54408;SDS011;40315;48.620;9.828;2023-05-07T09:52:55;3.35;;;1.80;;
54408;SDS011;40315;48.620;9.828;2023-05-07T09:55:27;3.25;;;1.90;;
54408;SDS011;40315;48.620;9.828;2023-05-07T09:57:55;2.60;;;2.40;;
54408;SDS011;40315;48.620;9.828;2023-05-07T10:00:26;2.65;;;2.42;;
54408;SDS011;40315;48.620;9.828;2023-05-07T10:03:03;2.05;;;1.67;;
54408;SDS011;40315;48.620;9.828;2023-05-07T10:05:40;2.30;;;2.05;;
54408;SDS011;40315;48.620;9.828;2023-05-07T10:08:10;2.17;;;1.98;;
54408;SDS011;40315;48.620;9.828;2023-05-07T10:10:40;1.92;;;1.70;;
54408;SDS011;40315;48.620;9.828;2023-05-07T10:13:12;2.10;;;1.80;;
54408;SDS011;40315;48.620;9.828;2023-05-07T10:15:44;1.65;;;1.55;;
54408;SDS011;40315;48.620;9.828;2023-05-07T10:18:12;2.90;;;1.83;;
54408;SDS011;40315;48.620;9.828;2023-05-07T10:20:42;1.50;;;1.40;;
54408;SDS011;40315;48.620;9.828;2023-05-07T10:23:13;2.38;;;1.40;;
54408;SDS011;40315;48.620;9.828;2023-05-07T10:25:48;1.90;;;1.30;;
54408;SDS011;40315;48.620;9.828;2023-05-07T10:28:21;2.75;;;1.30;;
54408;SDS011;40315;48.620;9.828;2023-05-07T10:30:55;2.95;;;1.95;;
54408;SDS011;40315;48.620;9.828;2023-05-07T10:33:36;1.50;;;1.30;;
54408;SDS011;40315;48.620;9.828;2023-05-07T10:36:06;2.55;;;2.03;;
54408;SDS011;40315;48.620;9.828;2023-05-07T10:38:35;2.15;;;1.50;;
54408;SDS011;40315;48.620;9.828;2023-05-07T10:41:05;3.20;;;1.48;;
54408;SDS011;40315;48.620;9.828;2023-05-07T10:43:40;1.98;;;1.40;;
54408;SDS011;40315;48.620;9.828;2023-05-07T10:46:09;2.10;;;1.35;;
54408;SDS011;40315;48.620;9.828;2023-05-07T10:51:42;1.63;;;1.13;;
54408;SDS011;40315;48.620;9.828;2023-05-07T10:54:23;2.30;;;1.40;;
54408;SDS011;40315;48.620;9.828;2023-05-07T11:00:42;1.42;;;1.20;;
54408;SDS011;40315;48.620;9.828;2023-05-07T11:03:27;2.15;;;1.23;;
54408;SDS011;40315;48.620;9.828;2023-05-07T11:06:08;1.23;;;1.10;;
54408;SDS011;40315;48.620;9.828;2023-05-07T11:08:59;1.48;;;1.20;;
54408;SDS011;40315;48.620;9.828;2023-05-07T11:11:44;1.63;;;1.40;;
54408;SDS011;40315;48.620;9.828;2023-05-07T11:17:17;1.70;;;1.33;;
54408;SDS011;40315;48.620;9.828;2023-05-07T11:19:53;1.67;;;1.50;;
54408;SDS011;40315;48.620;9.828;2023-05-07T11:22:37;2.35;;;1.58;;
54408;SDS011;40315;48.620;9.828;2023-05-07T11:25:24;2.30;;;1.67;;
54408;SDS011;40315;48.620;9.828;2023-05-07T11:28:04;1.63;;;1.52;;
54408;SDS011;40315;48.620;9.828;2023-05-07T11:30:33;1.95;;;1.42;;
54408;SDS011;40315;48.620;9.828;2023-05-07T11:33:04;1.55;;;1.38;;
54408;SDS011;40315;48.620;9.828;2023-05-07T11:35:32;3.08;;;1.60;;
54408;SDS011;40315;48.620;9.828;2023-05-07T11:37:59;3.00;;;1.63;;
54408;SDS011;40315;48.620;9.828;2023-05-07T11:40:30;2.58;;;1.70;;
54408;SDS011;40315;48.620;9.828;2023-05-07T11:42:57;2.65;;;1.75;;
54408;SDS011;40315;48.620;9.828;2023-05-07T11:45:24;3.20;;;1.40;;
54408;SDS011;40315;48.620;9.828;2023-05-07T11:47:53;2.03;;;1.40;;
54408;SDS011;40315;48.620;9.828;2023-05-07T11:50:22;1.65;;;1.45;;
54408;SDS011;40315;48.620;9.828;2023-05-07T11:52:52;3.03;;;1.50;;
54408;SDS011;40315;48.620;9.828;2023-05-07T11:55:19;1.58;;;1.45;;
54408;SDS011;40315;48.620;9.828;2023-05-07T11:57:47;2.88;;;1.88;;
54408;SDS011;40315;48.620;9.828;2023-05-07T12:00:15;1.63;;;1.52;;
54408;SDS011;40315;48.620;9.828;2023-05-07T12:02:43;2.60;;;1.60;;
54408;SDS011;40315;48.620;9.828;2023-05-07T12:05:11;1.90;;;1.67;;
54408;SDS011;40315;48.620;9.828;2023-05-07T12:07:40;2.25;;;1.63;;
54408;SDS011;40315;48.620;9.828;2023-05-07T12:10:07;3.17;;;1.70;;
54408;SDS011;40315;48.620;9.828;2023-05-07T12:12:41;3.75;;;1.80;;
54408;SDS011;40315;48.620;9.828;2023-05-07T12:15:18;2.83;;;1.90;;
54408;SDS011;40315;48.620;9.828;2023-05-07T12:17:49;2.25;;;1.83;;
54408;SDS011;40315;48.620;9.828;2023-05-07T12:20:17;4.40;;;1.60;;
54408;SDS011;40315;48.620;9.828;2023-05-07T12:22:47;2.45;;;1.55;;
54408;SDS011;40315;48.620;9.828;2023-05-07T12:25:18;2.50;;;2.00;;
54408;SDS011;40315;48.620;9.828;2023-05-07T12:27:50;3.38;;;2.15;;
54408;SDS011;40315;48.620;9.828;2023-05-07T12:30:18;1.98;;;1.70;;
54408;SDS011;40315;48.620;9.828;2023-05-07T12:32:45;4.93;;;2.13;;
54408;SDS011;40315;48.620;9.828;2023-05-07T12:35:12;2.60;;;2.15;;
54408;SDS011;40315;48.620;9.828;2023-05-07T12:37:40;2.80;;;2.47;;
54408;SDS011;40315;48.620;9.828;2023-05-07T12:40:09;3.10;;;2.60;;
54408;SDS011;40315;48.620;9.828;2023-05-07T12:42:39;4.82;;;3.08;;
54408;SDS011;40315;48.620;9.828;2023-05-07T12:45:10;2.17;;;1.98;;
54408;SDS011;40315;48.620;9.828;2023-05-07T12:47:37;3.65;;;2.42;;
54408;SDS011;40315;48.620;9.828;2023-05-07T12:50:05;2.60;;;2.40;;
54408;SDS011;40315;48.620;9.828;2023-05-07T12:52:33;4.15;;;2.30;;
54408;SDS011;40315;48.620;9.828;2023-05-07T12:55:05;3.42;;;2.35;;
54408;SDS011;40315;48.620;9.828;2023-05-07T12:57:41;4.05;;;2.42;;
54408;SDS011;40315;48.620;9.828;2023-05-07T13:00:09;3.03;;;2.60;;
54408;SDS011;40315;48.620;9.828;2023-05-07T13:02:37;4.03;;;2.42;;
54408;SDS011;40315;48.620;9.828;2023-05-07T13:05:05;4.32;;;2.60;;
54408;SDS011;40315;48.620;9.828;2023-05-07T13:07:33;3.90;;;2.80;;
54408;SDS011;40315;48.620;9.828;2023-05-07T13:10:00;3.40;;;2.90;;
54408;SDS011;40315;48.620;9.828;2023-05-07T13:12:27;4.68;;;2.63;;
54408;SDS011;40315;48.620;9.828;2023-05-07T13:14:56;3.55;;;2.75;;
54408;SDS011;40315;48.620;9.828;2023-05-07T13:17:26;2.85;;;2.60;;
54408;SDS011;40315;48.620;9.828;2023-05-07T13:19:53;3.50;;;2.70;;
54408;SDS011;40315;48.620;9.828;2023-05-07T13:22:20;3.58;;;2.70;;
54408;SDS011;40315;48.620;9.828;2023-05-07T13:24:48;3.63;;;2.33;;
54408;SDS011;40315;48.620;9.828;2023-05-07T13:27:15;3.40;;;2.30;;
54408;SDS011;40315;48.620;9.828;2023-05-07T13:29:44;3.65;;;2.50;;
54408;SDS011;40315;48.620;9.828;2023-05-07T13:32:13;3.88;;;2.63;;
54408;SDS011;40315;48.620;9.828;2023-05-07T13:34:42;3.45;;;2.53;;
54408;SDS011;40315;48.620;9.828;2023-05-07T13:37:09;3.97;;;2.35;;
54408;SDS011;40315;48.620;9.828;2023-05-07T13:39:37;2.65;;;2.40;;
54408;SDS011;40315;48.620;9.828;2023-05-07T13:42:04;2.67;;;2.03;;
54408;SDS011;40315;48.620;9.828;2023-05-07T13:44:31;2.75;;;2.20;;
54408;SDS011;40315;48.620;9.828;2023-05-07T13:46:58;2.95;;;2.20;;
54408;SDS011;40315;48.620;9.828;2023-05-07T13:49:27;2.85;;;2.40;;
54408;SDS011;40315;48.620;9.828;2023-05-07T13:51:54;2.72;;;2.20;;
54408;SDS011;40315;48.620;9.828;2023-05-07T13:54:22;4.25;;;2.47;;
54408;SDS011;40315;48.620;9.828;2023-05-07T13:56:49;2.53;;;2.30;;
54408;SDS011;40315;48.620;9.828;2023-05-07T13:59:16;2.38;;;2.10;;
54408;SDS011;40315;48.620;9.828;2023-05-07T14:01:43;3.50;;;2.30;;
54408;SDS011;40315;48.620;9.828;2023-05-07T14:04:10;3.17;;;2.15;;
54408;SDS011;40315;48.620;9.828;2023-05-07T14:06:39;3.47;;;2.40;;
54408;SDS011;40315;48.620;9.828;2023-05-07T14:09:06;2.40;;;2.20;;
54408;SDS011;40315;48.620;9.828;2023-05-07T14:11:35;2.95;;;2.10;;
54408;SDS011;40315;48.620;9.828;2023-05-07T14:14:02;2.50;;;2.20;;
54408;SDS011;40315;48.620;9.828;2023-05-07T14:16:31;2.30;;;2.10;;
54408;SDS011;40315;48.620;9.828;2023-05-07T14:18:59;2.50;;;2.05;;
54408;SDS011;40315;48.620;9.828;2023-05-07T14:21:26;3.10;;;2.00;;
54408;SDS011;40315;48.620;9.828;2023-05-07T14:23:56;2.78;;;2.15;;
54408;SDS011;40315;48.620;9.828;2023-05-07T14:26:25;3.03;;;2.17;;
54408;SDS011;40315;48.620;9.828;2023-05-07T14:28:55;2.55;;;1.90;;
54408;SDS011;40315;48.620;9.828;2023-05-07T14:31:23;2.42;;;2.15;;
54408;SDS011;40315;48.620;9.828;2023-05-07T14:33:53;3.20;;;1.95;;
54408;SDS011;40315;48.620;9.828;2023-05-07T14:36:20;2.03;;;1.83;;
54408;SDS011;40315;48.620;9.828;2023-05-07T14:38:48;2.30;;;2.10;;
54408;SDS011;40315;48.620;9.828;2023-05-07T14:41:16;2.00;;;1.90;;
54408;SDS011;40315;48.620;9.828;2023-05-07T14:43:43;2.00;;;1.70;;
54408;SDS011;40315;48.620;9.828;2023-05-07T14:46:15;3.25;;;1.98;;
54408;SDS011;40315;48.620;9.828;2023-05-07T14:48:43;2.22;;;1.83;;
54408;SDS011;40315;48.620;9.828;2023-05-07T14:51:13;2.47;;;2.15;;
54408;SDS011;40315;48.620;9.828;2023-05-07T14:53:41;4.05;;;2.40;;
54408;SDS011;40315;48.620;9.828;2023-05-07T14:56:09;4.05;;;2.20;;
54408;SDS011;40315;48.620;9.828;2023-05-07T14:58:38;2.60;;;2.20;;
54408;SDS011;40315;48.620;9.828;2023-05-07T15:01:05;2.10;;;1.90;;
54408;SDS011;40315;48.620;9.828;2023-05-07T15:03:33;2.85;;;1.70;;
54408;SDS011;40315;48.620;9.828;2023-05-07T15:06:01;3.33;;;1.55;;
54408;SDS011;40315;48.620;9.828;2023-05-07T15:08:28;1.85;;;1.35;;
54408;SDS011;40315;48.620;9.828;2023-05-07T15:10:56;2.08;;;1.70;;
54408;SDS011;40315;48.620;9.828;2023-05-07T15:13:23;2.75;;;1.60;;
54408;SDS011;40315;48.620;9.828;2023-05-07T15:15:52;1.67;;;1.33;;
54408;SDS011;40315;48.620;9.828;2023-05-07T15:18:19;3.05;;;1.45;;
54408;SDS011;40315;48.620;9.828;2023-05-07T15:20:47;2.58;;;1.45;;